createdAt,value
2018-05-11T00:00:03.818Z,90.60
2018-05-11T00:02:34.907Z,90.40
2018-05-11T00:05:04.861Z,90.40
2018-05-11T00:07:36.436Z,90.40
2018-05-11T00:10:07.736Z,91.00
2018-05-11T00:12:38.639Z,91.00
2018-05-11T00:15:09.773Z,91.20
2018-05-11T00:17:40.626Z,91.30
2018-05-11T00:20:11.759Z,91.40
2018-05-11T00:22:42.558Z,91.30
2018-05-11T00:25:17.079Z,91.60
2018-05-11T00:30:02.640Z,91.30
2018-05-11T00:32:32.837Z,90.90
2018-05-11T00:35:04.517Z,91.00
2018-05-11T00:37:35.768Z,91.20
2018-05-11T00:40:05.947Z,91.10
2018-05-11T00:42:37.616Z,91.60
2018-05-11T00:45:07.895Z,91.10
2018-05-11T00:47:37.858Z,91.20
2018-05-11T00:50:08.802Z,91.50
2018-05-11T00:55:30.933Z,91.60
2018-05-11T00:58:01.898Z,91.70
2018-05-11T01:00:32.809Z,91.50
2018-05-11T01:03:02.777Z,91.70
2018-05-11T01:06:41.881Z,91.70
2018-05-11T01:09:11.668Z,91.50
2018-05-11T01:11:41.858Z,91.50
2018-05-11T01:14:11.963Z,91.70
2018-05-11T01:16:41.662Z,91.60
2018-05-11T01:19:12.816Z,91.60
2018-05-11T01:21:44.022Z,91.60
2018-05-11T01:24:13.681Z,91.30
2018-05-11T01:26:43.895Z,91.60
2018-05-11T01:29:13.885Z,91.90
2018-05-11T01:31:44.912Z,91.80
2018-05-11T01:34:14.885Z,91.80
2018-05-11T01:36:47.274Z,91.60
2018-05-11T01:39:17.672Z,91.50
2018-05-11T01:41:48.529Z,91.60
2018-05-11T01:44:20.838Z,92.00
2018-05-11T01:46:51.778Z,92.00
2018-05-11T01:49:22.001Z,91.90
2018-05-11T01:51:52.764Z,91.80
2018-05-11T01:54:23.058Z,92.20
2018-05-11T01:56:54.699Z,92.40
2018-05-11T01:59:25.660Z,93.00
2018-05-11T02:01:55.982Z,92.70
2018-05-11T02:04:25.656Z,92.90
2018-05-11T02:06:55.725Z,93.00
2018-05-11T02:09:25.887Z,92.80
2018-05-11T02:11:55.856Z,93.80
2018-05-11T02:14:25.812Z,93.40
2018-05-11T02:16:58.026Z,93.30
2018-05-11T02:19:27.847Z,93.40
2018-05-11T02:21:57.766Z,93.90
2018-05-11T02:24:27.858Z,93.80
2018-05-11T02:27:01.407Z,93.80
2018-05-11T02:29:31.850Z,93.50
2018-05-11T02:32:02.507Z,93.40
2018-05-11T02:34:33.578Z,93.40
2018-05-11T02:37:03.606Z,93.30
2018-05-11T02:39:33.607Z,93.30
2018-05-11T02:42:03.822Z,93.30
2018-05-11T02:44:35.029Z,93.20
2018-05-11T02:47:05.455Z,93.00
2018-05-11T02:49:36.664Z,93.10
2018-05-11T02:52:06.589Z,93.10
2018-05-11T02:54:36.805Z,93.10
2018-05-11T02:57:06.736Z,93.00
2018-05-11T02:59:36.761Z,92.70
2018-05-11T03:02:06.765Z,92.90
2018-05-11T03:04:37.524Z,92.90
2018-05-11T03:07:07.563Z,92.90
2018-05-11T03:09:39.999Z,93.00
2018-05-11T03:12:09.515Z,92.90
2018-05-11T03:14:39.910Z,92.70
2018-05-11T03:17:08.975Z,92.80
2018-05-11T03:19:38.646Z,92.70
2018-05-11T03:22:09.713Z,93.10
2018-05-11T03:24:39.583Z,93.10
2018-05-11T03:27:10.603Z,93.10
2018-05-11T03:29:40.586Z,93.10
2018-05-11T03:32:12.420Z,93.10
2018-05-11T03:34:42.670Z,93.20
2018-05-11T03:37:13.966Z,93.20
2018-05-11T03:39:43.580Z,93.00
2018-05-11T03:42:14.619Z,93.00
2018-05-11T03:44:44.598Z,92.90
2018-05-11T03:48:43.548Z,92.80
2018-05-11T03:51:13.578Z,92.70
2018-05-11T03:53:43.690Z,92.80
2018-05-11T03:56:14.106Z,92.80
2018-05-11T03:58:46.348Z,92.80
2018-05-11T04:01:34.825Z,92.60
2018-05-11T04:04:23.596Z,92.70
2018-05-11T04:07:12.706Z,92.50
2018-05-11T04:09:42.568Z,92.40
2018-05-11T04:12:12.571Z,91.60
2018-05-11T04:14:43.613Z,90.50
2018-05-11T04:17:13.573Z,90.50
2018-05-11T04:19:43.571Z,89.90
2018-05-11T04:22:13.565Z,86.90
2018-05-11T04:24:44.523Z,83.00
2018-05-11T04:27:15.526Z,82.30
2018-05-11T04:29:45.501Z,82.30
2018-05-11T04:32:15.529Z,80.40
2018-05-11T04:34:45.528Z,78.40
2018-05-11T04:37:16.804Z,73.50
2018-05-11T04:39:48.313Z,73.00
2018-05-11T04:42:19.581Z,69.30
2018-05-11T04:44:50.590Z,66.80
2018-05-11T04:47:20.733Z,66.60
2018-05-11T04:49:52.565Z,60.60
2018-05-11T04:52:22.562Z,60.90
2018-05-11T04:54:53.736Z,60.40
2018-05-11T04:57:24.713Z,53.70
2018-05-11T04:59:55.592Z,51.70
2018-05-11T05:02:25.576Z,51.50
2018-05-11T05:04:55.569Z,51.70
2018-05-11T05:07:26.589Z,44.20
2018-05-11T05:09:56.592Z,44.00
2018-05-11T05:12:26.747Z,41.10
2018-05-11T05:14:56.687Z,39.50
2018-05-11T05:17:27.591Z,35.60
2018-05-11T05:19:57.578Z,35.50
2018-05-11T05:22:28.593Z,32.90
2018-05-11T05:24:58.598Z,32.80
2018-05-11T05:27:30.938Z,29.70
2018-05-11T05:32:21.578Z,28.70
2018-05-11T05:34:51.840Z,28.60
2018-05-11T05:37:21.560Z,28.60
2018-05-11T05:39:53.568Z,28.90
2018-05-11T05:42:24.573Z,30.30
2018-05-11T05:44:54.572Z,30.10
2018-05-11T05:47:26.972Z,31.20
2018-05-11T05:49:56.425Z,31.10
2018-05-11T05:52:27.600Z,31.30
2018-05-11T05:56:30.579Z,30.70
2018-05-11T05:59:00.758Z,30.70
2018-05-11T06:01:31.425Z,26.80
2018-05-11T06:04:02.505Z,25.80
2018-05-11T06:09:15.818Z,24.50
2018-05-11T06:11:45.947Z,23.80
2018-05-11T06:14:15.577Z,22.70
2018-05-11T06:16:46.616Z,21.70
2018-05-11T06:19:16.587Z,21.70
2018-05-11T06:21:47.579Z,22.10
2018-05-11T06:24:18.898Z,21.60
2018-05-11T06:26:48.533Z,21.50
2018-05-11T06:29:19.472Z,22.80
2018-05-11T06:31:50.940Z,22.80
2018-05-11T06:34:20.540Z,22.80
2018-05-11T06:36:51.783Z,21.50
2018-05-11T06:39:22.641Z,21.40
2018-05-11T06:41:52.878Z,21.70
2018-05-11T06:44:24.469Z,21.80
2018-05-11T06:46:54.735Z,22.00
2018-05-11T06:49:24.565Z,22.10
2018-05-11T06:51:55.690Z,22.70
2018-05-11T06:54:26.603Z,22.70
2018-05-11T06:56:56.837Z,22.30
2018-05-11T06:59:26.482Z,21.80
2018-05-11T07:01:56.810Z,21.60
2018-05-11T07:04:27.039Z,21.70
2018-05-11T07:06:57.802Z,21.20
2018-05-11T07:09:31.770Z,21.20
2018-05-11T07:12:02.533Z,21.40
2018-05-11T07:14:33.567Z,22.10
2018-05-11T07:17:04.788Z,22.20
2018-05-11T07:19:34.871Z,22.10
2018-05-11T07:22:05.572Z,21.40
2018-05-11T07:24:35.929Z,21.60
2018-05-11T07:27:05.764Z,21.20
2018-05-11T07:29:35.682Z,20.90
2018-05-11T07:32:05.600Z,22.00
2018-05-11T07:34:35.612Z,21.80
2018-05-11T07:37:05.625Z,21.40
2018-05-11T07:39:35.613Z,21.50
2018-05-11T07:42:06.578Z,21.60
2018-05-11T07:44:36.798Z,21.80
2018-05-11T07:47:06.833Z,22.10
2018-05-11T07:49:36.522Z,21.20
2018-05-11T07:52:08.606Z,21.40
2018-05-11T07:55:20.358Z,20.30
2018-05-11T07:57:50.844Z,20.40
2018-05-11T08:00:21.384Z,21.40
2018-05-11T08:02:51.905Z,22.30
2018-05-11T08:05:22.263Z,20.80
2018-05-11T08:07:53.716Z,22.40
2018-05-11T08:10:24.941Z,22.30
2018-05-11T08:12:55.976Z,22.30
2018-05-11T08:15:26.557Z,22.40
2018-05-11T08:17:57.587Z,21.40
2018-05-11T08:20:28.595Z,20.80
2018-05-11T08:22:58.671Z,20.70
2018-05-11T08:25:28.730Z,21.90
2018-05-11T08:27:58.606Z,23.20
2018-05-11T08:30:28.580Z,25.90
2018-05-11T08:32:59.551Z,25.90
2018-05-11T08:35:29.550Z,25.90
2018-05-11T08:38:00.629Z,24.60
2018-05-11T08:40:30.550Z,24.50
2018-05-11T08:43:00.651Z,25.70
2018-05-11T08:45:30.607Z,26.00
2018-05-11T08:48:00.786Z,25.80
2018-05-11T08:50:30.768Z,26.50
2018-05-11T08:53:01.809Z,25.20
2018-05-11T08:55:32.577Z,23.80
2018-05-11T08:58:02.587Z,24.00
2018-05-11T09:00:32.585Z,24.20
2018-05-11T09:03:02.603Z,25.70
2018-05-11T09:05:34.586Z,25.50
2018-05-11T09:08:05.690Z,25.20
2018-05-11T09:10:35.915Z,25.10
2018-05-11T09:13:08.343Z,24.60
2018-05-11T09:15:38.609Z,24.10
2018-05-11T09:18:08.632Z,24.00
2018-05-11T09:20:38.827Z,23.10
2018-05-11T09:23:08.800Z,22.90
2018-05-11T09:25:38.590Z,23.50
2018-05-11T09:28:09.833Z,23.60
2018-05-11T09:30:40.513Z,22.90
2018-05-11T09:33:13.884Z,23.30
2018-05-11T09:35:44.575Z,23.10
2018-05-11T09:38:16.846Z,22.50
2018-05-11T09:40:46.564Z,22.50
2018-05-11T09:43:17.645Z,23.20
2018-05-11T09:45:48.650Z,23.50
2018-05-11T09:48:18.689Z,23.50
2018-05-11T09:50:50.669Z,23.80
2018-05-11T09:53:22.805Z,22.80
2018-05-11T09:57:35.574Z,22.80
2018-05-11T10:00:06.490Z,22.40
2018-05-11T10:02:37.604Z,23.00
2018-05-11T10:05:08.689Z,22.10
2018-05-11T10:07:39.750Z,21.20
2018-05-11T10:10:09.805Z,21.10
2018-05-11T10:12:39.708Z,20.50
2018-05-11T10:15:10.878Z,21.10
2018-05-11T10:17:40.731Z,21.10
2018-05-11T10:20:11.518Z,21.00
2018-05-11T10:22:42.648Z,21.10
2018-05-11T10:25:16.873Z,21.10
2018-05-11T10:27:48.648Z,22.40
2018-05-11T10:30:28.915Z,22.70
2018-05-11T10:32:58.953Z,21.60
2018-05-11T10:35:29.625Z,20.30
2018-05-11T10:37:59.890Z,20.20
2018-05-11T10:40:29.593Z,20.30
2018-05-11T10:42:59.749Z,20.40
2018-05-11T10:45:33.725Z,19.80
2018-05-11T10:48:03.844Z,19.60
2018-05-11T10:50:33.796Z,20.40
2018-05-11T10:53:03.834Z,20.20
2018-05-11T10:55:33.811Z,21.20
2018-05-11T10:58:04.031Z,21.30
2018-05-11T11:00:34.494Z,21.80
2018-05-11T11:03:05.900Z,21.30
2018-05-11T11:05:35.649Z,21.30
2018-05-11T11:08:06.602Z,21.10
2018-05-11T11:10:36.603Z,21.10
2018-05-11T11:13:07.605Z,25.20
2018-05-11T11:15:37.802Z,25.10
2018-05-11T11:18:08.605Z,26.60
2018-05-11T11:20:39.596Z,28.20
2018-05-11T11:23:09.592Z,28.00
2018-05-11T11:25:39.588Z,29.60
2018-05-11T11:28:10.799Z,33.10
2018-05-11T11:30:40.912Z,33.00
2018-05-11T11:33:10.593Z,32.00
2018-05-11T11:35:40.683Z,29.90
2018-05-11T11:38:12.559Z,30.40
2018-05-11T11:40:42.593Z,32.00
2018-05-11T11:43:12.944Z,34.60
2018-05-11T11:45:42.478Z,37.50
2018-05-11T11:48:13.583Z,37.90
2018-05-11T11:50:43.536Z,38.00
2018-05-11T11:53:14.666Z,39.90
2018-05-11T11:55:44.578Z,39.80
2018-05-11T11:58:15.572Z,45.20
2018-05-11T12:00:46.494Z,47.90
2018-05-11T12:03:16.665Z,47.80
